Time;durP1;ratioP1;P1;durP2;ratioP2;P2;SDS_P1;SDS_P2;PMS_P1;PMS_P2;Temp;Humidity;BMP_temperature;BMP_pressure;BME280_temperature;BME280_humidity;BME280_pressure;Samples;Min_cycle;Max_cycle;Signal;HPM_P1;HPM_P2
2022/11/11 00:00:29;;;;;;;;;;;;;;;16.88;77.61;101925.13;7356841;19;19948;-57
2022/11/11 00:02:56;;;;;;;;;;;;;;;16.91;78.13;101935.44;7362733;19;19915;-60
2022/11/11 00:05:23;;;;;;;;;;;;;;;16.93;77.97;101944.91;7363401;19;19938;-56
2022/11/11 00:07:51;;;;;;;;;;;;;;;16.94;77.74;101946.56;7368525;19;19922;-57
2022/11/11 00:10:18;;;;;;;;;;;;;;;16.96;77.98;101939.28;7370241;19;19963;-57
2022/11/11 00:12:45;;;;;;;;;;;;;;;16.97;77.80;101943.56;7370363;19;19935;-59
2022/11/11 00:15:11;;;;;;;;;;;;;;;16.97;77.55;101935.59;7368389;19;19959;-57
2022/11/11 00:25:29;;;;;;;;;;;;;;;17.00;76.93;101939.75;7367852;19;20354;-60
2022/11/11 00:27:55;;;;;;;;;;;;;;;17.00;77.38;101945.06;7368937;19;20495;-58
2022/11/11 00:30:22;;;;;;;;;;;;;;;17.00;77.12;101951.22;7367247;19;20377;-57
2022/11/11 00:32:49;;;;;;;;;;;;;;;17.04;77.60;101951.72;7370364;19;20636;-57
2022/11/11 00:37:52;;;;;;;;;;;;;;;17.05;77.90;101951.56;7368452;19;20276;-59
2022/11/11 00:40:19;;;;;;;;;;;;;;;17.05;77.56;101956.88;7368296;19;19927;-61
2022/11/11 00:42:46;;;;;;;;;;;;;;;17.09;80.45;101952.88;7370578;19;19953;-55
2022/11/11 00:45:12;;;;;;;;;;;;;;;17.12;81.24;101950.91;7366038;19;19982;-58
2022/11/11 00:52:55;;;;;;;;;;;;;;;17.11;79.64;101960.69;7369375;19;19918;-57
2022/11/11 00:55:21;;;;;;;;;;;;;;;17.13;79.18;101955.19;7367576;19;20346;-58
2022/11/11 00:57:48;;;;;;;;;;;;;;;17.13;78.70;101950.69;7367658;19;19929;-54
2022/11/11 01:00:15;;;;;;;;;;;;;;;17.12;78.98;101950.91;7370986;19;19952;-57
2022/11/11 01:02:42;;;;;;;;;;;;;;;17.12;79.03;101953.56;7372965;19;20518;-58
2022/11/11 01:05:08;;;;;;;;;;;;;;;17.13;78.83;101958.69;7371661;19;19926;-56
2022/11/11 01:07:35;;;;;;;;;;;;;;;17.14;79.40;101956.84;7368566;19;19919;-57
2022/11/11 01:10:02;;;;;;;;;;;;;;;17.13;79.75;101963.16;7369899;19;19931;-58
2022/11/11 01:12:29;;;;;;;;;;;;;;;17.13;80.17;101965.81;7366210;19;20536;-56
2022/11/11 01:14:56;;;;;;;;;;;;;;;17.12;79.96;101961.53;7367291;19;19923;-59
2022/11/11 01:17:23;;;;;;;;;;;;;;;17.10;80.28;101965.19;7364977;19;19941;-59
2022/11/11 01:19:49;;;;;;;;;;;;;;;17.08;80.08;101964.50;7369603;19;19926;-56
2022/11/11 01:22:16;;;;;;;;;;;;;;;17.09;80.20;101957.38;7363492;19;19985;-55
2022/11/11 01:24:44;;;;;;;;;;;;;;;17.06;79.54;101961.22;7363952;19;19919;-53
2022/11/11 01:27:11;;;;;;;;;;;;;;;17.07;81.21;101957.53;7365150;19;19919;-57
2022/11/11 01:29:38;;;;;;;;;;;;;;;17.11;81.56;101955.38;7366301;19;19930;-58
2022/11/11 01:32:05;;;;;;;;;;;;;;;17.10;81.34;101962.53;7365176;19;20451;-59
2022/11/11 01:34:31;;;;;;;;;;;;;;;17.08;80.57;101956.53;7364859;19;19927;-58
2022/11/11 01:36:59;;;;;;;;;;;;;;;17.07;80.50;101967.31;7364979;19;19929;-56
2022/11/11 01:39:25;;;;;;;;;;;;;;;17.05;80.54;101961.38;7364399;19;19922;-58
2022/11/11 01:41:52;;;;;;;;;;;;;;;17.05;81.38;101959.53;7363655;19;19952;-57
2022/11/11 01:44:35;;;;;;;;;;;;;;;17.07;82.30;101948.72;7362142;19;20260;-57
2022/11/11 01:47:04;;;;;;;;;;;;;;;17.05;81.92;101956.88;7362066;19;20542;-58
2022/11/11 01:49:41;;;;;;;;;;;;;;;17.07;82.72;101954.03;7362062;19;19926;-59
2022/11/11 01:52:17;;;;;;;;;;;;;;;17.08;82.12;101947.72;7365603;19;20347;-56
2022/11/11 01:54:47;;;;;;;;;;;;;;;17.08;81.97;101945.06;7365697;19;20352;-59
2022/11/11 01:57:17;;;;;;;;;;;;;;;17.06;81.70;101947.91;7361819;19;20593;-57
2022/11/11 01:59:45;;;;;;;;;;;;;;;17.06;81.53;101939.09;7363397;19;19987;-52
2022/11/11 02:02:16;;;;;;;;;;;;;;;17.06;81.92;101939.09;7367137;19;19919;-53
2022/11/11 02:07:21;;;;;;;;;;;;;;;17.03;81.85;101947.38;7362498;19;19923;-57
2022/11/11 02:09:50;;;;;;;;;;;;;;;17.06;82.73;101952.41;7365479;19;19933;-57
2022/11/11 02:14:56;;;;;;;;;;;;;;;17.06;82.64;101952.41;7362357;19;19923;-56
2022/11/11 02:17:24;;;;;;;;;;;;;;;17.05;83.06;101958.69;7365690;19;19978;-56
2022/11/11 02:19:54;;;;;;;;;;;;;;;17.02;82.88;101956.34;7366517;19;19926;-55
2022/11/11 02:22:23;;;;;;;;;;;;;;;17.03;83.57;101961.53;7364744;19;20512;-55
2022/11/11 02:24:51;;;;;;;;;;;;;;;17.02;83.47;101954.53;7364035;19;19930;-54
2022/11/11 02:27:19;;;;;;;;;;;;;;;17.02;83.85;101951.03;7362003;19;20119;-59
2022/11/11 02:29:48;;;;;;;;;;;;;;;17.05;84.99;101951.56;7359759;19;20492;-57
2022/11/11 02:32:15;;;;;;;;;;;;;;;17.06;84.84;101945.25;7364272;19;20390;-58
2022/11/11 02:34:41;;;;;;;;;;;;;;;17.02;84.30;101953.69;7365063;19;19937;-61
2022/11/11 02:37:09;;;;;;;;;;;;;;;17.01;84.71;101952.91;7357964;19;19923;-55
2022/11/11 02:39:39;;;;;;;;;;;;;;;17.01;84.44;101957.38;7364717;19;19918;-60
2022/11/11 02:42:26;;;;;;;;;;;;;;;16.98;84.89;101952.38;7360843;19;19925;-57
2022/11/11 02:44:57;;;;;;;;;;;;;;;16.96;84.84;101946.41;7358735;19;20493;-56
2022/11/11 02:47:25;;;;;;;;;;;;;;;16.97;85.13;101948.06;7361055;19;19930;-58
2022/11/11 02:49:52;;;;;;;;;;;;;;;16.99;86.08;101940.75;7364376;19;19935;-56
2022/11/11 02:52:18;;;;;;;;;;;;;;;17.00;85.87;101937.09;7364610;19;20010;-60
2022/11/11 02:54:46;;;;;;;;;;;;;;;17.02;85.61;101930.59;7361861;19;20345;-59
2022/11/11 02:57:13;;;;;;;;;;;;;;;17.01;85.48;101926.31;7364519;19;20679;-58
2022/11/11 02:59:40;;;;;;;;;;;;;;;16.99;85.56;101925.63;7361544;19;19964;-59
2022/11/11 03:02:07;;;;;;;;;;;;;;;16.97;85.55;101924.94;7362394;19;19923;-57
2022/11/11 03:04:34;;;;;;;;;;;;;;;16.96;85.66;101923.31;7359192;19;19922;-56
2022/11/11 03:07:01;;;;;;;;;;;;;;;16.93;85.66;101928.94;7358650;19;20498;-58
2022/11/11 03:09:27;;;;;;;;;;;;;;;16.97;86.39;101932.09;7364791;19;19934;-59
2022/11/11 03:11:54;;;;;;;;;;;;;;;16.99;86.56;101938.91;7362215;19;19933;-60
2022/11/11 03:14:21;;;;;;;;;;;;;;;16.97;85.96;101932.94;7360489;19;19947;-60
2022/11/11 03:19:25;;;;;;;;;;;;;;;16.93;86.24;101936.94;7362360;19;19930;-58
2022/11/11 03:21:54;;;;;;;;;;;;;;;16.91;85.97;101930.97;7360803;19;19938;-60
2022/11/11 03:27:17;;;;;;;;;;;;;;;16.91;86.60;101930.13;7358782;19;19923;-61
2022/11/11 03:29:43;;;;;;;;;;;;;;;16.92;86.94;101931.75;7363356;19;19922;-60
2022/11/11 03:32:10;;;;;;;;;;;;;;;16.93;86.95;101936.09;7360901;19;20362;-58
2022/11/11 03:34:37;;;;;;;;;;;;;;;16.93;86.73;101939.59;7362274;19;19940;-57
2022/11/11 03:39:42;;;;;;;;;;;;;;;16.92;86.51;101926.44;7359599;19;21601;-59
2022/11/11 03:42:08;;;;;;;;;;;;;;;16.91;86.58;101930.13;7369167;19;19918;-59
2022/11/11 03:44:35;;;;;;;;;;;;;;;16.91;86.75;101924.81;7369059;19;19930;-55
2022/11/11 03:47:01;;;;;;;;;;;;;;;16.92;87.40;101934.44;7365092;19;19952;-59
2022/11/11 03:49:28;;;;;;;;;;;;;;;16.92;86.88;101931.75;7368510;19;20600;-63
2022/11/11 03:51:55;;;;;;;;;;;;;;;16.90;86.46;101931.94;7368290;19;19934;-59
2022/11/11 03:54:21;;;;;;;;;;;;;;;16.88;86.43;101920.63;7368478;19;20348;-54
2022/11/11 03:56:48;;;;;;;;;;;;;;;16.88;86.59;101936.59;7365277;19;20299;-60
2022/11/11 03:59:15;;;;;;;;;;;;;;;16.87;86.44;101940.25;7365747;19;19922;-59
2022/11/11 04:12:07;;;;;;;;;;;;;;;16.83;86.05;101928.28;7367196;19;19943;-57
2022/11/11 04:17:10;;;;;;;;;;;;;;;16.81;86.22;101937.44;7368994;19;19930;-59
2022/11/11 04:22:13;;;;;;;;;;;;;;;16.84;86.91;101934.44;7369096;19;19923;-57
2022/11/11 04:27:17;;;;;;;;;;;;;;;16.81;85.98;101922.28;7367364;19;19950;-55
2022/11/11 04:29:46;;;;;;;;;;;;;;;16.80;85.64;101928.63;7365771;19;19968;-59
2022/11/11 04:34:52;;;;;;;;;;;;;;;16.76;85.32;101940.56;7366343;19;21562;-58
2022/11/11 04:37:19;;;;;;;;;;;;;;;16.75;85.71;101930.97;7366534;19;19974;-58
2022/11/11 04:42:23;;;;;;;;;;;;;;;16.73;85.34;101938.25;7369560;19;19939;-55
2022/11/11 04:47:27;;;;;;;;;;;;;;;16.68;84.95;101943.22;7362846;19;19944;-57
2022/11/11 04:49:53;;;;;;;;;;;;;;;16.66;85.18;101940.72;7368470;19;19923;-59
2022/11/11 04:57:38;;;;;;;;;;;;;;;16.71;85.63;101940.22;7379448;19;19922;-56
2022/11/11 05:00:05;;;;;;;;;;;;;;;16.73;85.61;101943.56;7363337;19;19926;-58
2022/11/11 05:05:07;;;;;;;;;;;;;;;16.71;84.29;101934.91;7366073;19;20257;-59
2022/11/11 05:10:11;;;;;;;;;;;;;;;16.72;84.60;101931.28;7365310;19;19927;-54
2022/11/11 05:12:37;;;;;;;;;;;;;;;16.72;84.49;101941.91;7365047;19;20245;-61
2022/11/11 05:23:02;;;;;;;;;;;;;;;16.72;84.04;101944.56;7369198;19;20198;-60
2022/11/11 05:25:32;;;;;;;;;;;;;;;16.70;84.18;101940.41;7366993;19;19919;-57
2022/11/11 05:27:59;;;;;;;;;;;;;;;16.67;83.86;101937.09;7363131;19;19921;-59
2022/11/11 05:30:26;;;;;;;;;;;;;;;16.66;84.03;101937.25;7364546;19;19926;-62
2022/11/11 05:33:03;;;;;;;;;;;;;;;16.67;84.63;101938.91;7367034;19;19922;-56
2022/11/11 05:35:29;;;;;;;;;;;;;;;16.66;84.11;101940.72;7365675;19;20228;-59
2022/11/11 05:40:36;;;;;;;;;;;;;;;16.68;84.16;101938.75;7368343;19;19923;-58
2022/11/11 05:43:03;;;;;;;;;;;;;;;16.71;84.19;101942.09;7365977;19;19990;-58
2022/11/11 05:45:30;;;;;;;;;;;;;;;16.71;83.92;101948.22;7363360;19;20512;-58
2022/11/11 05:48:01;;;;;;;;;;;;;;;16.72;84.23;101943.72;7366849;19;19919;-57
2022/11/11 05:50:27;;;;;;;;;;;;;;;16.74;84.84;101941.75;7365664;19;20405;-55
2022/11/11 05:52:55;;;;;;;;;;;;;;;16.75;84.37;101943.41;7366147;19;19914;-56
2022/11/11 05:55:21;;;;;;;;;;;;;;;16.73;83.90;101946.22;7365727;19;19923;-60
2022/11/11 05:57:48;;;;;;;;;;;;;;;16.72;83.86;101946.38;7364106;19;19929;-58
2022/11/11 06:00:15;;;;;;;;;;;;;;;16.70;83.69;101949.22;7362831;19;19930;-58
2022/11/11 06:02:42;;;;;;;;;;;;;;;16.71;83.71;101950.06;7363333;19;20326;-55
2022/11/11 06:05:08;;;;;;;;;;;;;;;16.71;83.83;101950.88;7363203;19;19930;-59
2022/11/11 06:07:37;;;;;;;;;;;;;;;16.72;84.42;101949.88;7361945;19;20562;-58
2022/11/11 06:15:19;;;;;;;;;;;;;;;16.72;83.52;101957.00;7365565;19;19918;-59
2022/11/11 06:17:45;;;;;;;;;;;;;;;16.73;83.31;101956.03;7366915;19;19933;-60
2022/11/11 06:20:12;;;;;;;;;;;;;;;16.72;83.38;101965.00;7362935;19;19934;-62
2022/11/11 06:27:52;;;;;;;;;;;;;;;16.81;83.69;101974.66;7360827;19;20866;-58
2022/11/11 06:30:18;;;;;;;;;;;;;;;16.81;83.62;101970.16;7361875;19;19950;-57
2022/11/11 06:33:06;;;;;;;;;;;;;;;16.81;83.37;101969.34;7363317;19;19956;-58
2022/11/11 06:35:34;;;;;;;;;;;;;;;16.83;83.13;101972.66;7365744;19;19927;-61
2022/11/11 06:38:01;;;;;;;;;;;;;;;16.85;83.06;101976.81;7361525;19;19918;-56
2022/11/11 06:40:29;;;;;;;;;;;;;;;16.87;83.24;101984.59;7365607;19;19914;-58
2022/11/11 06:42:57;;;;;;;;;;;;;;;16.86;82.90;101983.81;7363197;19;19926;-59
2022/11/11 06:45:25;;;;;;;;;;;;;;;16.86;82.83;101983.81;7361555;19;19930;-58
2022/11/11 06:47:51;;;;;;;;;;;;;;;16.86;82.66;101988.28;7363956;19;19926;-57
2022/11/11 06:50:19;;;;;;;;;;;;;;;16.86;83.06;101991.78;7364701;19;19922;-56
2022/11/11 06:52:46;;;;;;;;;;;;;;;16.87;82.67;101989.94;7361116;19;19918;-55
2022/11/11 06:55:13;;;;;;;;;;;;;;;16.87;83.30;101992.59;7363100;19;19973;-61
2022/11/11 06:57:39;;;;;;;;;;;;;;;16.92;83.80;102008.88;7361651;19;19918;-60
2022/11/11 07:00:07;;;;;;;;;;;;;;;16.91;83.03;102000.09;7362284;19;19930;-59
2022/11/11 07:02:34;;;;;;;;;;;;;;;16.94;82.79;101998.91;7364170;19;20236;-58
2022/11/11 07:05:01;;;;;;;;;;;;;;;16.95;82.70;102003.25;7362629;19;19918;-56
2022/11/11 07:07:27;;;;;;;;;;;;;;;16.94;82.95;102001.56;7362739;19;19918;-56
2022/11/11 07:09:54;;;;;;;;;;;;;;;16.91;82.88;101994.78;7365590;19;19931;-55
2022/11/11 07:12:22;;;;;;;;;;;;;;;16.92;82.65;102006.22;7363193;19;19918;-56
2022/11/11 07:14:49;;;;;;;;;;;;;;;16.90;83.03;102003.75;7358511;19;20320;-54
2022/11/11 07:17:16;;;;;;;;;;;;;;;16.94;83.43;102009.56;7361927;19;20225;-59
2022/11/11 07:19:42;;;;;;;;;;;;;;;16.96;83.19;102012.91;7365377;19;19919;-56
2022/11/11 07:22:09;;;;;;;;;;;;;;;16.98;83.18;102016.19;7361241;19;20280;-55
2022/11/11 07:24:36;;;;;;;;;;;;;;;16.97;82.99;102018.03;7364917;19;19922;-57
2022/11/11 07:27:03;;;;;;;;;;;;;;;16.97;82.83;102026.00;7360871;19;19946;-58
2022/11/11 07:29:30;;;;;;;;;;;;;;;16.97;83.09;102033.16;7365021;19;20495;-58
2022/11/11 07:31:57;;;;;;;;;;;;;;;16.99;83.48;102031.16;7363026;19;20364;-60
2022/11/11 07:34:24;;;;;;;;;;;;;;;17.01;83.66;102027.34;7364164;19;20404;-58
2022/11/11 07:36:50;;;;;;;;;;;;;;;17.02;83.34;102039.63;7362141;19;19915;-59
2022/11/11 07:39:17;;;;;;;;;;;;;;;16.97;82.53;102033.16;7362824;19;20280;-55
2022/11/11 07:41:44;;;;;;;;;;;;;;;16.94;82.85;102033.50;7359486;19;19952;-63
2022/11/11 07:44:11;;;;;;;;;;;;;;;16.93;83.36;102037.97;7360272;19;19927;-58
2022/11/11 07:46:38;;;;;;;;;;;;;;;16.97;83.87;102043.78;7362293;19;20265;-54
2022/11/11 07:49:04;;;;;;;;;;;;;;;17.00;84.29;102046.97;7367561;19;19930;-60
2022/11/11 07:51:31;;;;;;;;;;;;;;;17.03;83.51;102043.13;7359140;19;20019;-59
2022/11/11 07:53:58;;;;;;;;;;;;;;;17.03;83.04;102040.47;7365364;19;19921;-61
2022/11/11 07:56:25;;;;;;;;;;;;;;;17.02;82.93;102047.63;7356762;19;19923;-55
2022/11/11 07:58:52;;;;;;;;;;;;;;;17.03;83.12;102056.44;7359585;19;20343;-58
2022/11/11 08:01:18;;;;;;;;;;;;;;;17.03;83.24;102053.78;7361745;19;19923;-59
2022/11/11 08:03:48;;;;;;;;;;;;;;;17.07;84.03;102063.06;7362793;19;19953;-56
2022/11/11 08:06:17;;;;;;;;;;;;;;;17.09;84.01;102075.22;7360849;19;20600;-59
2022/11/11 08:08:45;;;;;;;;;;;;;;;17.10;83.46;102081.38;7359555;19;19923;-59
2022/11/11 08:11:12;;;;;;;;;;;;;;;17.09;83.20;102080.56;7361686;19;19974;-59
2022/11/11 08:13:39;;;;;;;;;;;;;;;17.08;83.39;102076.22;7360719;19;19925;-57
2022/11/11 08:16:07;;;;;;;;;;;;;;;17.10;83.61;102076.06;7360273;19;19929;-58
2022/11/11 08:18:34;;;;;;;;;;;;;;;17.10;83.58;102074.25;7362562;19;20280;-57
2022/11/11 08:21:01;;;;;;;;;;;;;;;17.13;84.02;102072.22;7360100;19;20320;-57
2022/11/11 08:23:32;;;;;;;;;;;;;;;17.16;83.74;102078.06;7364693;19;19919;-59
2022/11/11 08:26:20;;;;;;;;;;;;;;;17.20;82.96;102079.41;7360705;19;20242;-57
2022/11/11 08:28:55;;;;;;;;;;;;;;;17.21;82.66;102081.06;7365717;19;19922;-62
2022/11/11 08:31:22;;;;;;;;;;;;;;;17.19;82.14;102083.06;7368370;19;19919;-56
2022/11/11 08:33:49;;;;;;;;;;;;;;;17.18;82.01;102084.03;7368632;19;19927;-59
2022/11/11 08:36:16;;;;;;;;;;;;;;;17.19;82.33;102091.03;7366752;19;19930;-60
2022/11/11 08:38:46;;;;;;;;;;;;;;;17.21;82.59;102091.72;7370333;19;20370;-61
2022/11/11 08:41:13;;;;;;;;;;;;;;;17.21;82.04;102088.22;7366178;19;19925;-59
2022/11/11 08:43:40;;;;;;;;;;;;;;;17.19;81.43;102088.38;7366809;19;20707;-57
2022/11/11 08:46:07;;;;;;;;;;;;;;;17.19;81.97;102090.19;7364437;19;20524;-61
2022/11/11 08:48:34;;;;;;;;;;;;;;;17.20;81.91;102081.22;7364104;19;19930;-58
2022/11/11 08:51:01;;;;;;;;;;;;;;;17.20;81.66;102086.53;7364419;19;19978;-60
2022/11/11 08:53:28;;;;;;;;;;;;;;;17.23;81.66;102088.88;7366156;19;20389;-59
2022/11/11 08:55:55;;;;;;;;;;;;;;;17.27;81.85;102098.19;7368073;19;19994;-59
2022/11/11 08:58:22;;;;;;;;;;;;;;;17.31;82.05;102099.53;7366338;19;19974;-57
2022/11/11 09:00:49;;;;;;;;;;;;;;;17.32;81.34;102096.69;7363264;19;19925;-60
2022/11/11 09:03:16;;;;;;;;;;;;;;;17.33;81.09;102102.84;7366687;19;20004;-55
2022/11/11 09:05:46;;;;;;;;;;;;;;;17.33;81.05;102097.50;7364806;19;19983;-57
2022/11/11 09:08:13;;;;;;;;;;;;;;;17.34;80.84;102100.03;7365528;19;20360;-57
2022/11/11 09:10:40;;;;;;;;;;;;;;;17.36;81.51;102094.53;7364413;19;19926;-59
2022/11/11 09:13:07;;;;;;;;;;;;;;;17.37;81.67;102107.66;7367571;19;19926;-59
2022/11/11 09:15:33;;;;;;;;;;;;;;;17.40;81.11;102110.00;7363470;19;19927;-56
2022/11/11 09:18:00;;;;;;;;;;;;;;;17.41;80.80;102105.53;7363735;19;19923;-57
2022/11/11 09:20:28;;;;;;;;;;;;;;;17.41;80.64;102114.34;7338223;19;19919;-59
2022/11/11 09:22:55;;;;;;;;;;;;;;;17.41;80.67;102114.34;7363451;19;20701;-53
2022/11/11 09:25:22;;;;;;;;;;;;;;;17.41;81.02;102113.50;7365996;19;20553;-59
2022/11/11 09:27:52;;;;;;;;;;;;;;;17.43;81.33;102122.13;7361929;19;19919;-57
2022/11/11 09:30:20;;;;;;;;;;;;;;;17.46;81.37;102121.81;7362071;19;19923;-56
2022/11/11 09:32:47;;;;;;;;;;;;;;;17.47;80.89;102123.50;7364910;19;20363;-57
2022/11/11 09:35:14;;;;;;;;;;;;;;;17.49;81.26;102132.13;7366509;19;19926;-59
2022/11/11 09:37:41;;;;;;;;;;;;;;;17.51;81.23;102132.81;7361562;19;19939;-57
2022/11/11 09:40:16;;;;;;;;;;;;;;;17.51;80.63;102132.81;7366691;19;20572;-58
2022/11/11 09:42:48;;;;;;;;;;;;;;;17.52;80.61;102135.28;7366758;19;19930;-56
2022/11/11 09:45:20;;;;;;;;;;;;;;;17.50;80.80;102142.63;7364303;19;19926;-55
2022/11/11 09:48:00;;;;;;;;;;;;;;;17.50;80.75;102144.44;7362999;19;19948;-56
2022/11/11 09:50:36;;;;;;;;;;;;;;;17.50;80.84;102147.94;7365266;19;21710;-56
2022/11/11 09:53:10;;;;;;;;;;;;;;;17.49;80.83;102148.09;7365722;19;20471;-61
2022/11/11 09:55:38;;;;;;;;;;;;;;;17.49;81.10;102151.59;7366822;19;20352;-55
2022/11/11 09:58:11;;;;;;;;;;;;;;;17.51;81.25;102151.44;7365504;19;19926;-59
2022/11/11 10:00:40;;;;;;;;;;;;;;;17.52;81.27;102169.88;7364940;19;20570;-57
2022/11/11 10:03:09;;;;;;;;;;;;;;;17.51;80.83;102167.41;7363888;19;20225;-60
2022/11/11 10:05:40;;;;;;;;;;;;;;;17.53;80.75;102170.72;7365878;19;19926;-58
2022/11/11 10:08:16;;;;;;;;;;;;;;;17.54;80.50;102178.53;7366908;19;19994;-56
2022/11/11 10:10:44;;;;;;;;;;;;;;;17.51;80.06;102183.38;7366054;19;19923;-54
2022/11/11 10:13:14;;;;;;;;;;;;;;;17.53;80.33;102182.19;7363376;19;19947;-59
2022/11/11 10:15:50;;;;;;;;;;;;;;;17.52;80.38;102190.38;7362883;19;19922;-57
2022/11/11 10:18:26;;;;;;;;;;;;;;;17.52;80.99;102188.50;7365675;19;19919;-54
2022/11/11 10:20:54;;;;;;;;;;;;;;;17.55;81.18;102190.03;7366318;19;19922;-56
2022/11/11 10:23:24;;;;;;;;;;;;;;;17.58;80.78;102192.34;7367825;19;20360;-61
2022/11/11 10:25:54;;;;;;;;;;;;;;;17.57;80.27;102196.03;7366994;19;19927;-57
2022/11/11 10:28:24;;;;;;;;;;;;;;;17.57;80.28;102196.03;7363198;19;20345;-54
2022/11/11 10:30:52;;;;;;;;;;;;;;;17.55;80.13;102192.69;7365033;19;19926;-58
2022/11/11 10:33:23;;;;;;;;;;;;;;;17.54;80.52;102191.03;7369989;19;20330;-59
2022/11/11 10:35:52;;;;;;;;;;;;;;;17.59;81.21;102196.72;7369978;19;19919;-58
2022/11/11 10:38:25;;;;;;;;;;;;;;;17.64;80.82;102204.19;7366405;19;19930;-58
2022/11/11 10:40:53;;;;;;;;;;;;;;;17.63;80.15;102203.38;7366811;19;20363;-59
2022/11/11 10:43:24;;;;;;;;;;;;;;;17.63;80.63;102214.00;7364596;19;19918;-58
2022/11/11 10:46:00;;;;;;;;;;;;;;;17.61;80.02;102208.03;7369110;19;20031;-59
2022/11/11 10:48:33;;;;;;;;;;;;;;;17.62;80.08;102214.22;7365683;19;19962;-57
2022/11/11 10:51:05;;;;;;;;;;;;;;;17.61;80.77;102220.53;7365943;19;19926;-60
2022/11/11 10:53:39;;;;;;;;;;;;;;;17.61;80.36;102216.03;7368922;19;19946;-58
2022/11/11 10:56:06;;;;;;;;;;;;;;;17.62;80.37;102222.19;7369403;19;20377;-59
2022/11/11 10:58:37;;;;;;;;;;;;;;;17.62;80.15;102212.38;7364997;19;19946;-61
2022/11/11 11:01:07;;;;;;;;;;;;;;;17.62;80.02;102209.72;7362109;19;19959;-62
2022/11/11 11:03:37;;;;;;;;;;;;;;;17.63;80.44;102210.53;7364826;19;20311;-55
2022/11/11 11:06:04;;;;;;;;;;;;;;;17.63;80.22;102211.34;7366181;19;19919;-60
2022/11/11 11:08:35;;;;;;;;;;;;;;;17.64;80.28;102206.88;7363554;19;20292;-58
2022/11/11 11:11:06;;;;;;;;;;;;;;;17.63;80.41;102210.53;7365098;19;19929;-58
2022/11/11 11:13:39;;;;;;;;;;;;;;;17.64;80.12;102212.19;7364540;19;19930;-58
2022/11/11 11:16:12;;;;;;;;;;;;;;;17.64;79.77;102205.03;7362003;19;20339;-60
2022/11/11 11:18:39;;;;;;;;;;;;;;;17.66;80.12;102208.38;7364235;19;19926;-60
2022/11/11 11:21:09;;;;;;;;;;;;;;;17.67;79.94;102207.38;7365292;19;20343;-59
2022/11/11 11:23:37;;;;;;;;;;;;;;;17.70;79.44;102203.56;7362749;19;20159;-61
2022/11/11 11:26:04;;;;;;;;;;;;;;;17.71;79.36;102205.22;7362362;19;19917;-58
2022/11/11 11:28:33;;;;;;;;;;;;;;;17.75;79.21;102203.88;7360178;19;20491;-65
2022/11/11 11:31:04;;;;;;;;;;;;;;;17.78;79.49;102203.53;7359983;19;19935;-59
2022/11/11 11:33:41;;;;;;;;;;;;;;;17.81;79.15;102197.91;7362782;19;20562;-61
2022/11/11 11:36:15;;;;;;;;;;;;;;;17.81;78.92;102196.06;7359493;19;19980;-60
2022/11/11 11:38:46;;;;;;;;;;;;;;;17.85;79.21;102199.22;7362705;19;20275;-57
2022/11/11 11:41:13;;;;;;;;;;;;;;;17.87;79.00;102206.06;7364775;19;19926;-59
2022/11/11 11:43:44;;;;;;;;;;;;;;;17.90;78.88;102199.56;7363376;19;19926;-63
2022/11/11 11:46:20;;;;;;;;;;;;;;;17.95;79.27;102200.72;7363411;19;19937;-58
2022/11/11 11:48:54;;;;;;;;;;;;;;;17.98;78.73;102206.72;7362116;19;20466;-61
2022/11/11 11:51:30;;;;;;;;;;;;;;;17.98;78.21;102196.88;7363767;19;20297;-59
2022/11/11 11:54:07;;;;;;;;;;;;;;;17.99;78.87;102208.38;7365411;19;19923;-60
2022/11/11 11:56:44;;;;;;;;;;;;;;;17.99;79.33;102197.72;7363543;19;19923;-60
2022/11/11 11:59:11;;;;;;;;;;;;;;;17.99;78.70;102195.88;7360087;19;19934;-57
2022/11/11 12:01:46;;;;;;;;;;;;;;;17.99;78.82;102201.22;7362706;19;21936;-59
2022/11/11 12:04:14;;;;;;;;;;;;;;;17.99;78.42;102203.03;7369893;19;19926;-60
2022/11/11 12:06:54;;;;;;;;;;;;;;;18.00;78.40;102221.53;7367311;19;19933;-59
2022/11/11 12:09:23;;;;;;;;;;;;;;;18.01;78.77;102222.38;7368610;19;19930;-62
2022/11/11 12:11:59;;;;;;;;;;;;;;;17.99;78.81;102217.19;7368933;19;20275;-59
2022/11/11 12:14:36;;;;;;;;;;;;;;;17.99;79.05;102217.19;7370333;19;19934;-58
2022/11/11 12:17:13;;;;;;;;;;;;;;;17.95;78.44;102213.22;7371736;19;19982;-59
2022/11/11 12:19:49;;;;;;;;;;;;;;;17.94;78.41;102217.69;7371351;19;19923;-60
2022/11/11 12:22:25;;;;;;;;;;;;;;;17.92;78.66;102216.22;7366950;19;21091;-57
2022/11/11 12:24:55;;;;;;;;;;;;;;;17.92;79.10;102209.06;7371534;19;19914;-60
2022/11/11 12:27:31;;;;;;;;;;;;;;;17.92;79.21;102205.56;7364721;19;19953;-59
2022/11/11 12:30:04;;;;;;;;;;;;;;;17.94;79.40;102195.56;7365014;19;19926;-61
2022/11/11 12:32:31;;;;;;;;;;;;;;;17.97;79.39;102199.75;7372558;19;19922;-60
2022/11/11 12:35:11;;;;;;;;;;;;;;;17.99;79.18;102197.72;7370030;19;19929;-58
2022/11/11 12:37:47;;;;;;;;;;;;;;;17.99;79.05;102195.88;7374223;19;20002;-57
2022/11/11 12:40:22;;;;;;;;;;;;;;;18.01;79.04;102198.41;7370623;19;19947;-61
2022/11/11 12:42:58;;;;;;;;;;;;;;;17.95;78.66;102187.41;7369364;19;19914;-60
2022/11/11 12:45:30;;;;;;;;;;;;;;;17.95;78.55;102191.91;7367030;19;20311;-59
2022/11/11 12:48:04;;;;;;;;;;;;;;;17.97;79.23;102192.59;7368594;19;19922;-56
2022/11/11 12:50:37;;;;;;;;;;;;;;;17.95;78.61;102205.22;7367637;19;19925;-61
2022/11/11 12:53:14;;;;;;;;;;;;;;;17.97;78.65;102199.75;7369799;19;20011;-60
2022/11/11 12:55:51;;;;;;;;;;;;;;;17.95;78.61;102202.56;7369716;19;20504;-60
2022/11/11 12:58:28;;;;;;;;;;;;;;;17.90;78.07;102207.56;7369257;19;19931;-60
2022/11/11 13:01:04;;;;;;;;;;;;;;;17.87;78.25;102199.91;7368841;19;19933;-59
2022/11/11 13:03:38;;;;;;;;;;;;;;;17.85;78.91;102201.91;7367696;19;20347;-59
2022/11/11 13:06:15;;;;;;;;;;;;;;;17.85;78.79;102207.22;7365875;19;20354;-58
2022/11/11 13:08:51;;;;;;;;;;;;;;;17.86;78.86;102204.41;7361672;19;20270;-60
2022/11/11 13:11:18;;;;;;;;;;;;;;;17.86;78.56;102204.41;7367091;19;19930;-57
2022/11/11 13:13:53;;;;;;;;;;;;;;;17.85;77.94;102194.75;7370265;19;19925;-60
2022/11/11 13:16:22;;;;;;;;;;;;;;;17.81;77.42;102203.22;7374441;19;19919;-62
2022/11/11 13:18:50;;;;;;;;;;;;;;;17.78;77.39;102196.38;7365877;19;19918;-57
2022/11/11 13:21:21;;;;;;;;;;;;;;;17.76;77.58;102195.75;7362970;19;19974;-59
2022/11/11 13:23:48;;;;;;;;;;;;;;;17.78;77.56;102199.06;7367518;19;19986;-58
2022/11/11 13:26:19;;;;;;;;;;;;;;;17.78;77.56;102191.06;7364512;19;19931;-59
2022/11/11 13:28:48;;;;;;;;;;;;;;;17.79;77.84;102195.41;7366239;19;19931;-59
2022/11/11 13:31:25;;;;;;;;;;;;;;;17.80;77.81;102188.25;7367658;19;19919;-59
2022/11/11 13:33:55;;;;;;;;;;;;;;;17.83;78.32;102190.56;7367281;19;19947;-60
2022/11/11 13:36:25;;;;;;;;;;;;;;;17.84;78.50;102184.25;7369748;19;20344;-55
2022/11/11 13:38:57;;;;;;;;;;;;;;;17.86;78.36;102183.09;7367918;19;20310;-59
2022/11/11 13:41:24;;;;;;;;;;;;;;;17.92;78.50;102184.25;7365995;19;19919;-60
2022/11/11 13:43:52;;;;;;;;;;;;;;;17.94;78.21;102187.56;7363933;19;19978;-57
2022/11/11 13:46:29;;;;;;;;;;;;;;;17.96;78.37;102180.25;7366810;19;19947;-58
2022/11/11 13:48:57;;;;;;;;;;;;;;;17.89;77.67;102181.91;7365973;19;19949;-59
2022/11/11 13:51:26;;;;;;;;;;;;;;;17.88;78.10;102185.56;7368542;19;19926;-58
2022/11/11 13:53:53;;;;;;;;;;;;;;;17.90;78.61;102188.91;7369631;19;19919;-59
2022/11/11 13:56:30;;;;;;;;;;;;;;;17.92;78.28;102192.25;7366232;19;19990;-60
2022/11/11 13:58:59;;;;;;;;;;;;;;;17.93;78.20;102184.06;7368381;19;19939;-60
2022/11/11 14:01:35;;;;;;;;;;;;;;;17.92;78.41;102182.44;7367074;19;20565;-55
2022/11/11 14:04:09;;;;;;;;;;;;;;;17.88;77.56;102178.41;7368089;19;19915;-57
2022/11/11 14:06:47;;;;;;;;;;;;;;;17.83;77.58;102179.91;7368416;19;19998;-59
2022/11/11 14:09:24;;;;;;;;;;;;;;;17.80;78.25;102177.59;7368246;19;19926;-59
2022/11/11 14:12:11;;;;;;;;;;;;;;;17.81;78.63;102179.25;7366175;19;20019;-60